Time;durP1;ratioP1;P1;durP2;ratioP2;P2;SDS_P1;SDS_P2;PMS_P1;PMS_P2;Temp;Humidity;BMP_temperature;BMP_pressure;BME280_temperature;BME280_humidity;BME280_pressure;Samples;Min_cycle;Max_cycle;Signal;HPM_P1;HPM_P2
2022/03/28 00:02:12;;;;;;;34.30;24.73;;;;;;;13.67;41.06;102435.56;5029139;28;20099;-63
2022/03/28 00:04:49;;;;;;;33.80;24.27;;;;;;;13.57;41.28;102428.97;5028789;28;20108;-63
2022/03/28 00:07:15;;;;;;;32.90;23.10;;;;;;;13.50;41.69;102425.75;5029030;28;20050;-63
2022/03/28 00:09:42;;;;;;;35.03;25.08;;;;;;;13.50;41.45;102423.94;5029321;28;20053;-63
2022/03/28 00:12:10;;;;;;;33.45;25.20;;;;;;;13.46;41.44;102424.13;5028904;28;20045;-63
2022/03/28 00:14:37;;;;;;;36.28;25.05;;;;;;;13.37;41.59;102420.13;5027864;28;20053;-63
2022/03/28 00:17:04;;;;;;;37.15;24.92;;;;;;;13.31;41.69;102423.81;5028759;28;20409;-64
2022/03/28 00:19:30;;;;;;;33.75;24.95;;;;;;;13.32;41.69;102422.03;5028867;28;20053;-63
2022/03/28 00:21:57;;;;;;;35.30;25.95;;;;;;;13.35;41.76;102416.66;5028771;28;20042;-63
2022/03/28 00:24:24;;;;;;;33.15;25.17;;;;;;;13.31;41.73;102413.28;5028830;28;20057;-63
2022/03/28 00:26:50;;;;;;;37.13;25.35;;;;;;;13.30;41.55;102410.72;5029069;28;20107;-64
2022/03/28 00:29:17;;;;;;;33.45;24.83;;;;;;;13.24;41.80;102414.44;5028581;28;20042;-63
2022/03/28 00:31:44;;;;;;;33.22;23.80;;;;;;;13.11;42.01;102421.16;5027568;28;20049;-63
2022/03/28 00:34:10;;;;;;;34.03;24.30;;;;;;;13.01;42.00;102418.88;5028233;28;20124;-63
2022/03/28 00:36:37;;;;;;;34.30;24.58;;;;;;;12.96;41.98;102402.38;5028504;28;20045;-63
2022/03/28 00:39:04;;;;;;;35.33;24.83;;;;;;;12.94;41.89;102400.72;5028569;28;20053;-63
2022/03/28 00:41:30;;;;;;;34.08;24.63;;;;;;;12.84;41.98;102402.88;5028679;28;20049;-62
2022/03/28 00:43:59;;;;;;;39.92;26.02;;;;;;;12.86;41.87;102403.66;5031731;28;20050;-63
2022/03/28 00:46:26;;;;;;;32.28;24.33;;;;;;;12.78;41.98;102401.34;5032598;28;20046;-63
2022/03/28 00:48:54;;;;;;;36.13;25.15;;;;;;;12.72;41.96;102397.19;5031445;28;20743;-63
2022/03/28 00:51:23;;;;;;;36.53;26.27;;;;;;;12.67;42.13;102395.63;5032588;28;20056;-63
2022/03/28 00:53:50;;;;;;;39.70;26.10;;;;;;;12.69;42.04;102393.81;5032211;28;20107;-63
2022/03/28 00:56:18;;;;;;;36.45;26.58;;;;;;;12.70;42.13;102393.75;5032422;28;20108;-64
2022/03/28 00:58:45;;;;;;;39.75;26.52;;;;;;;12.69;42.18;102391.19;5032294;28;20095;-63
2022/03/28 01:01:12;;;;;;;38.33;27.38;;;;;;;12.65;42.12;102386.94;5032301;28;20064;-63
2022/03/28 01:03:40;;;;;;;34.67;26.17;;;;;;;12.55;42.52;102392.56;5030992;28;20049;-63
2022/03/28 01:06:07;;;;;;;38.92;26.67;;;;;;;12.56;42.37;102393.44;5031924;28;20103;-63
2022/03/28 01:08:35;;;;;;;40.13;27.15;;;;;;;12.58;42.50;102388.94;5032095;28;20079;-63
2022/03/28 01:11:11;;;;;;;36.15;26.27;;;;;;;12.57;42.57;102379.34;5032536;28;20045;-63
2022/03/28 01:13:40;;;;;;;36.95;27.05;;;;;;;12.48;42.78;102380.56;5032046;28;20080;-63
2022/03/28 01:16:08;;;;;;;36.03;25.98;;;;;;;12.48;42.55;102385.81;5032050;28;20042;-62
2022/03/28 01:18:35;;;;;;;38.05;26.80;;;;;;;12.52;42.53;102390.06;5032156;28;20050;-63
2022/03/28 01:21:04;;;;;;;40.22;27.67;;;;;;;12.55;42.64;102378.53;5030842;28;20441;-63
2022/03/28 01:23:31;;;;;;;37.05;27.27;;;;;;;12.55;42.74;102383.81;5031483;28;20046;-63
2022/03/28 01:25:57;;;;;;;38.45;26.65;;;;;;;12.48;42.88;102382.31;5031808;28;20080;-63
2022/03/28 01:28:26;;;;;;;38.13;27.30;;;;;;;12.47;42.57;102383.22;5031189;28;20041;-64
2022/03/28 01:30:54;;;;;;;38.75;26.73;;;;;;;12.49;42.89;102369.09;5031468;28;20555;-63
2022/03/28 01:33:21;;;;;;;36.88;26.77;;;;;;;12.50;42.95;102373.44;5031671;28;20075;-63
2022/03/28 01:35:49;;;;;;;38.33;26.85;;;;;;;12.53;42.86;102370.72;5030495;28;20049;-63
2022/03/28 01:38:17;;;;;;;35.90;26.65;;;;;;;12.50;43.12;102372.59;5031544;28;20211;-63
2022/03/28 01:40:48;;;;;;;37.45;26.35;;;;;;;12.50;43.02;102365.53;5031600;28;20132;-63
2022/03/28 01:43:16;;;;;;;39.40;27.60;;;;;;;12.41;43.26;102365.91;5031468;28;20049;-63
2022/03/28 01:45:43;;;;;;;41.00;26.85;;;;;;;12.46;43.14;102371.00;5031774;28;20103;-63
2022/03/28 01:48:11;;;;;;;36.78;26.52;;;;;;;12.38;43.30;102372.16;5031414;28;20045;-63
2022/03/28 01:50:38;;;;;;;34.33;25.63;;;;;;;12.32;43.49;102372.38;5031256;28;20045;-63
2022/03/28 01:53:06;;;;;;;38.10;26.58;;;;;;;12.24;43.65;102369.19;5029841;28;20080;-63
2022/03/28 01:55:33;;;;;;;36.05;26.67;;;;;;;12.23;43.43;102365.69;5011306;28;20050;-63
2022/03/28 01:57:59;;;;;;;43.15;26.92;;;;;;;12.26;43.42;102362.06;5010624;28;20104;-63
2022/03/28 02:00:32;;;;;;;35.00;26.50;;;;;;;12.22;43.54;102371.00;5011258;28;20482;-63
2022/03/28 02:02:59;;;;;;;37.88;26.70;;;;;;;12.22;43.45;102357.84;5011481;28;20104;-63
2022/03/28 02:05:27;;;;;;;33.95;25.38;;;;;;;12.21;43.41;102362.28;5011383;28;20485;-62
2022/03/28 02:07:54;;;;;;;32.75;25.30;;;;;;;12.16;43.54;102361.56;5011093;28;20061;-63
2022/03/28 02:10:21;;;;;;;36.13;24.98;;;;;;;12.15;43.58;102359.88;5011109;28;20042;-63
2022/03/28 02:12:49;;;;;;;35.03;25.70;;;;;;;12.07;43.57;102351.38;5028706;28;20072;-63
2022/03/28 02:15:16;;;;;;;38.33;25.23;;;;;;;12.07;43.50;102352.25;5030854;28;20482;-63
2022/03/28 02:17:43;;;;;;;38.50;26.23;;;;;;;12.05;43.56;102356.72;5030956;28;20049;-64
2022/03/28 02:20:13;;;;;;;39.85;26.88;;;;;;;12.05;43.64;102358.50;5030953;28;20049;-63
2022/03/28 02:22:42;;;;;;;39.78;26.17;;;;;;;12.09;43.47;102358.31;5030826;28;20050;-63
2022/03/28 02:25:11;;;;;;;40.60;26.15;;;;;;;12.08;43.42;102351.31;5030758;28;20064;-63
2022/03/28 02:27:38;;;;;;;35.50;26.27;;;;;;;12.12;43.68;102348.59;5029550;28;20053;-63
2022/03/28 02:30:07;;;;;;;37.75;25.65;;;;;;;12.12;43.76;102351.22;5030975;28;20049;-63
2022/03/28 02:32:34;;;;;;;34.15;24.55;;;;;;;12.04;43.83;102349.72;5030523;28;20054;-63
2022/03/28 02:35:02;;;;;;;36.50;24.52;;;;;;;12.03;43.61;102341.88;5030266;28;20063;-63
2022/03/28 02:37:30;;;;;;;35.60;25.70;;;;;;;12.02;43.85;102345.44;5030183;28;20095;-63
2022/03/28 02:39:56;;;;;;;40.97;24.83;;;;;;;12.07;43.50;102348.75;5030395;28;20049;-63
2022/03/28 02:42:23;;;;;;;36.30;25.30;;;;;;;12.05;43.64;102340.06;5030121;28;20053;-63
2022/03/28 02:45:10;;;;;;;35.13;24.42;;;;;;;12.14;43.65;102344.09;5029213;28;20053;-63
2022/03/28 02:47:36;;;;;;;33.75;24.40;;;;;;;12.17;43.56;102342.22;5030301;28;20460;-64
2022/03/28 02:50:03;;;;;;;38.38;24.58;;;;;;;12.12;43.74;102344.16;5030278;28;20049;-63
2022/03/28 02:52:30;;;;;;;37.35;24.85;;;;;;;12.04;43.85;102335.72;5029933;28;20095;-63
2022/03/28 02:54:57;;;;;;;35.67;24.95;;;;;;;11.99;43.88;102338.50;5030208;28;20052;-63
2022/03/28 02:57:23;;;;;;;37.25;24.42;;;;;;;11.98;43.87;102334.16;5030019;28;20059;-63
2022/03/28 02:59:50;;;;;;;33.88;23.60;;;;;;;11.99;43.88;102332.41;5029021;28;20414;-63
2022/03/28 03:02:17;;;;;;;34.33;24.35;;;;;;;12.00;43.84;102331.47;5030107;28;20057;-63
2022/03/28 03:04:44;;;;;;;35.17;24.02;;;;;;;12.04;43.67;102336.56;5029334;28;20143;-63
2022/03/28 03:07:10;;;;;;;34.20;23.05;;;;;;;12.08;43.54;102334.69;5029672;28;20052;-63
2022/03/28 03:09:37;;;;;;;35.45;23.63;;;;;;;12.07;43.50;102325.06;5029782;28;20052;-63
2022/03/28 03:12:04;;;;;;;31.95;22.50;;;;;;;12.07;43.60;102325.94;5029848;28;20046;-63
2022/03/28 03:14:31;;;;;;;36.30;23.98;;;;;;;12.00;43.75;102327.06;5030035;28;20049;-63
2022/03/28 03:16:58;;;;;;;40.70;25.23;;;;;;;11.88;43.98;102319.59;5029232;28;20382;-63
2022/03/28 03:19:24;;;;;;;35.47;23.58;;;;;;;11.81;43.98;102318.09;5029671;28;20041;-63
2022/03/28 03:21:51;;;;;;;34.85;23.77;;;;;;;11.75;43.95;102325.28;5029784;28;20512;-64
2022/03/28 03:24:18;;;;;;;37.40;23.20;;;;;;;11.73;43.87;102316.63;5029516;28;20057;-63
2022/03/28 03:26:44;;;;;;;33.95;23.58;;;;;;;11.71;43.90;102315.81;5029582;28;20430;-63
2022/03/28 03:29:11;;;;;;;32.47;23.48;;;;;;;11.71;44.11;102307.91;5030188;28;20049;-63
2022/03/28 03:31:39;;;;;;;33.40;23.23;;;;;;;11.69;43.95;102311.53;5029705;28;20056;-62
2022/03/28 03:34:09;;;;;;;33.17;22.92;;;;;;;11.73;43.96;102314.00;5028400;28;20099;-63
2022/03/28 03:36:36;;;;;;;32.08;22.83;;;;;;;11.71;44.05;102309.72;5029318;28;20045;-63
2022/03/28 03:39:03;;;;;;;38.65;23.83;;;;;;;11.67;44.12;102308.94;5029416;28;20053;-63
2022/03/28 03:41:30;;;;;;;39.85;23.33;;;;;;;11.65;44.09;102307.28;5029289;28;20053;-63
2022/03/28 03:43:56;;;;;;;43.88;24.95;;;;;;;11.65;44.01;102310.78;5029490;28;20073;-63
2022/03/28 03:46:23;;;;;;;47.60;23.80;;;;;;;11.63;44.04;102312.63;5029155;28;20064;-63
2022/03/28 03:48:50;;;;;;;47.20;24.23;;;;;;;11.63;44.11;102311.72;5029306;28;20049;-63
2022/03/28 03:51:17;;;;;;;40.08;23.83;;;;;;;11.60;44.18;102313.59;5028271;28;20046;-63
2022/03/28 03:53:44;;;;;;;37.55;23.60;;;;;;;11.59;44.25;102316.25;5029043;28;20049;-63
2022/03/28 03:56:11;;;;;;;32.15;23.10;;;;;;;11.67;44.03;102315.97;5029419;28;20056;-63
2022/03/28 03:58:37;;;;;;;38.70;23.15;;;;;;;11.56;44.24;102321.63;5029326;28;20053;-63
2022/03/28 04:01:04;;;;;;;38.67;24.20;;;;;;;11.42;44.40;102322.09;5029052;28;20056;-63
2022/03/28 04:03:33;;;;;;;42.33;24.40;;;;;;;11.33;44.62;102317.19;5029102;28;20099;-63
2022/03/28 04:06:00;;;;;;;38.78;24.98;;;;;;;11.21;45.12;102323.69;5028139;28;20053;-63
2022/03/28 04:08:27;;;;;;;37.55;26.67;;;;;;;11.21;45.29;102321.94;5029181;28;20445;-63
2022/03/28 04:10:54;;;;;;;36.88;25.08;;;;;;;11.18;45.53;102321.19;5029146;28;20077;-63
2022/03/28 04:13:22;;;;;;;34.60;25.25;;;;;;;11.11;45.88;102324.00;5029002;28;20456;-63
2022/03/28 04:15:49;;;;;;;34.78;25.33;;;;;;;11.04;45.76;102319.84;5029146;28;20068;-63
2022/03/28 04:18:16;;;;;;;42.75;25.20;;;;;;;10.99;45.96;102323.56;5032946;28;20049;-63
2022/03/28 04:20:42;;;;;;;40.08;24.55;;;;;;;10.94;46.11;102328.97;5031781;28;20057;-63
2022/03/28 04:23:09;;;;;;;42.92;25.45;;;;;;;10.88;46.11;102330.03;5033267;28;20046;-63
2022/03/28 04:25:35;;;;;;;41.90;26.50;;;;;;;10.86;46.09;102320.47;5032819;28;20498;-63
2022/03/28 04:28:06;;;;;;;39.03;24.63;;;;;;;10.80;46.24;102321.53;5033277;28;20081;-63
2022/03/28 04:30:33;;;;;;;36.20;24.88;;;;;;;10.76;46.29;102326.00;5033123;28;20493;-63
2022/03/28 04:33:00;;;;;;;42.53;26.30;;;;;;;10.73;46.27;102328.75;5033327;28;20049;-63
2022/03/28 04:35:26;;;;;;;37.30;26.52;;;;;;;10.68;46.23;102327.16;5031604;28;20224;-63
2022/03/28 04:37:53;;;;;;;37.55;26.42;;;;;;;10.68;46.21;102329.78;5032715;28;20053;-63
2022/03/28 04:40:20;;;;;;;34.42;25.58;;;;;;;10.69;46.30;102337.63;5032976;28;20064;-63
2022/03/28 04:42:48;;;;;;;40.03;25.85;;;;;;;10.68;46.32;102328.03;5032826;28;20049;-63
2022/03/28 04:45:15;;;;;;;36.67;24.27;;;;;;;10.66;46.22;102334.25;5032605;28;20045;-63
2022/03/28 04:47:42;;;;;;;36.95;24.95;;;;;;;10.65;46.12;102328.13;5032865;28;20103;-63
2022/03/28 04:50:09;;;;;;;38.60;26.40;;;;;;;10.66;46.11;102327.22;5032656;28;20482;-63
2022/03/28 04:52:36;;;;;;;35.90;25.35;;;;;;;10.65;46.30;102333.38;5030477;28;20067;-63
2022/03/28 04:55:04;;;;;;;37.22;26.00;;;;;;;10.65;46.44;102341.25;5012744;28;20046;-64
2022/03/28 04:57:32;;;;;;;39.80;25.23;;;;;;;11.53;45.46;102338.38;5012722;28;20053;-64
2022/03/28 04:59:59;;;;;;;38.92;25.42;;;;;;;11.13;46.20;102339.72;5028800;28;20045;-63
2022/03/28 05:02:25;;;;;;;35.53;25.00;;;;;;;10.98;46.30;102334.97;5032085;28;20441;-63
2022/03/28 05:04:52;;;;;;;35.72;24.45;;;;;;;10.91;46.35;102332.53;5032113;28;20504;-64
2022/03/28 05:07:29;;;;;;;38.40;24.17;;;;;;;10.82;46.30;102338.09;5031077;28;20056;-63
2022/03/28 05:09:57;;;;;;;44.42;24.95;;;;;;;10.74;46.55;102337.47;5032395;28;20103;-63
2022/03/28 05:12:25;;;;;;;41.00;24.90;;;;;;;10.65;46.49;102346.50;5032076;28;20041;-63
2022/03/28 05:14:52;;;;;;;46.35;25.45;;;;;;;10.55;46.43;102351.19;5032407;28;20057;-63
2022/03/28 05:17:26;;;;;;;41.15;24.95;;;;;;;10.52;46.37;102346.00;5032296;28;20052;-63
2022/03/28 05:19:54;;;;;;;39.75;25.40;;;;;;;10.50;46.18;102337.34;5032039;28;20045;-63
2022/03/28 05:22:21;;;;;;;43.63;25.88;;;;;;;10.48;46.17;102347.03;5031078;28;20049;-63
2022/03/28 05:24:50;;;;;;;42.28;24.75;;;;;;;10.44;46.18;102348.03;5031919;28;20500;-62
2022/03/28 05:27:17;;;;;;;42.92;25.85;;;;;;;10.41;46.21;102351.59;5031904;28;20049;-62
2022/03/28 05:29:45;;;;;;;44.00;25.17;;;;;;;10.47;46.02;102347.91;5031254;28;20045;-64
2022/03/28 05:32:13;;;;;;;44.33;25.90;;;;;;;10.48;45.96;102354.91;5030278;28;20048;-64
2022/03/28 05:34:40;;;;;;;45.42;25.70;;;;;;;10.51;46.10;102349.53;5031841;28;20421;-62
2022/03/28 05:37:10;;;;;;;51.17;25.50;;;;;;;10.51;46.09;102349.53;5031526;28;20049;-64
2022/03/28 05:39:37;;;;;;;47.45;24.70;;;;;;;10.86;45.88;102339.72;5031373;28;20045;-62
2022/03/28 05:42:05;;;;;;;45.80;25.73;;;;;;;10.68;46.02;102349.03;5031440;28;20053;-63
2022/03/28 05:44:33;;;;;;;42.97;25.13;;;;;;;10.65;45.84;102348.28;5031655;28;20049;-64
2022/03/28 05:47:00;;;;;;;43.17;25.92;;;;;;;10.68;45.91;102348.16;5031785;28;20049;-63
2022/03/28 05:49:27;;;;;;;52.85;26.58;;;;;;;10.68;46.19;102342.91;5030398;28;20046;-66
2022/03/28 05:51:54;;;;;;;48.63;25.35;;;;;;;10.68;46.12;102353.41;5031512;28;20046;-64
2022/03/28 05:54:21;;;;;;;49.40;18.02;;;;;;;10.86;46.25;102349.38;5031307;28;20045;-62
2022/03/28 05:56:48;;;;;;;46.58;25.75;;;;;;;11.37;46.73;102348.53;5031133;28;20056;-63
2022/03/28 05:59:16;;;;;;;44.55;26.90;;;;;;;11.17;46.80;102353.63;5031548;28;20091;-64
2022/03/28 06:01:43;;;;;;;44.90;26.85;;;;;;;11.10;46.83;102350.34;5031189;28;20053;-63
2022/03/28 06:04:10;;;;;;;44.22;26.20;;;;;;;11.03;46.72;102354.06;5029372;28;20057;-63
2022/03/28 06:06:37;;;;;;;39.20;26.42;;;;;;;11.03;46.55;102344.41;5030918;28;20565;-63
2022/03/28 06:09:04;;;;;;;43.15;26.88;;;;;;;11.10;46.65;102345.09;5031175;28;20049;-63
2022/03/28 06:11:31;;;;;;;43.80;26.70;;;;;;;11.03;46.77;102344.41;5030305;28;20103;-64
2022/03/28 06:13:58;;;;;;;41.72;26.77;;;;;;;10.95;46.87;102346.44;5031126;28;20050;-63
2022/03/28 06:16:25;;;;;;;45.75;26.75;;;;;;;11.01;46.73;102348.88;5029432;28;20103;-63
2022/03/28 06:18:53;;;;;;;46.60;26.65;;;;;;;11.05;46.72;102357.50;5031150;28;20050;-64
2022/03/28 06:21:20;;;;;;;44.70;27.50;;;;;;;11.10;46.51;102355.59;5029431;28;20079;-64
2022/03/28 06:23:49;;;;;;;45.20;27.38;;;;;;;11.17;46.47;102351.84;5030780;28;20074;-64
2022/03/28 06:26:17;;;;;;;47.03;29.13;;;;;;;11.20;46.51;102356.13;5030434;28;20532;-64
2022/03/28 06:28:46;;;;;;;52.65;29.17;;;;;;;11.26;46.54;102346.28;5030599;28;20050;-64
2022/03/28 06:31:14;;;;;;;54.70;28.48;;;;;;;11.31;46.41;102346.13;5030339;28;20046;-63
2022/03/28 06:33:41;;;;;;;49.08;26.75;;;;;;;11.40;46.53;102344.94;5029705;28;20128;-63
2022/03/28 06:36:09;;;;;;;45.75;26.05;;;;;;;11.47;46.30;102345.63;5028646;28;20049;-64
2022/03/28 06:38:36;;;;;;;42.70;26.17;;;;;;;11.55;45.99;102349.69;5030175;28;20139;-63
2022/03/28 06:41:04;;;;;;;42.28;26.98;;;;;;;11.67;45.85;102345.78;5029294;28;20056;-64
2022/03/28 06:43:31;;;;;;;43.22;26.92;;;;;;;11.80;45.46;102346.19;5030281;28;20053;-64
2022/03/28 06:45:58;;;;;;;41.65;29.30;;;;;;;11.99;45.19;102349.03;5030193;28;20060;-64
2022/03/28 06:48:25;;;;;;;39.78;27.73;;;;;;;12.18;44.79;102346.56;5029683;28;20148;-63
2022/03/28 06:50:59;;;;;;;38.60;26.40;;;;;;;12.35;44.58;102342.44;5029830;28;20128;-62
2022/03/28 06:53:26;;;;;;;40.17;27.63;;;;;;;12.51;44.32;102354.09;5028926;28;20494;-64
2022/03/28 06:55:53;;;;;;;42.05;26.20;;;;;;;12.64;43.98;102348.34;5028066;28;20068;-64
2022/03/28 06:58:20;;;;;;;44.75;27.60;;;;;;;12.78;43.39;102351.28;5037660;28;20053;-64
2022/03/28 07:00:47;;;;;;;43.83;27.65;;;;;;;12.92;43.21;102345.47;5029495;28;20045;-64
2022/03/28 07:03:14;;;;;;;40.55;28.67;;;;;;;13.35;42.72;102340.19;5028644;28;20046;-64
2022/03/28 07:05:43;;;;;;;46.25;28.25;;;;;;;13.29;42.84;102348.34;5028136;28;20049;-64
2022/03/28 07:08:10;;;;;;;44.67;27.58;;;;;;;13.43;42.65;102345.16;5027395;28;20119;-64
2022/03/28 07:10:37;;;;;;;47.05;29.25;;;;;;;13.43;42.54;102345.16;5029130;28;20052;-64
2022/03/28 07:13:04;;;;;;;49.38;32.33;;;;;;;13.44;42.80;102337.19;5029856;28;20049;-64
2022/03/28 07:15:30;;;;;;;50.85;31.52;;;;;;;13.43;42.90;102338.09;5028826;28;20052;-64
2022/03/28 07:18:02;;;;;;;50.22;31.63;;;;;;;13.66;42.44;102336.25;5029340;28;20081;-64
2022/03/28 07:20:31;;;;;;;48.38;31.45;;;;;;;13.79;42.16;102340.06;5028703;28;20099;-64
2022/03/28 07:22:59;;;;;;;49.35;30.27;;;;;;;13.96;41.77;102344.56;5029669;28;20050;-64
2022/03/28 07:25:26;;;;;;;46.03;30.02;;;;;;;14.11;41.49;102339.53;5027387;28;20057;-64
2022/03/28 07:27:54;;;;;;;45.90;29.73;;;;;;;14.22;41.44;102345.19;5029332;28;20046;-64
2022/03/28 07:30:22;;;;;;;47.95;30.90;;;;;;;14.31;41.07;102336.81;5028688;28;20088;-64
2022/03/28 07:32:51;;;;;;;46.05;30.33;;;;;;;14.46;40.84;102339.66;5029214;28;20053;-64
2022/03/28 07:35:21;;;;;;;47.92;29.95;;;;;;;14.66;40.51;102336.94;5028787;28;20049;-64
2022/03/28 07:37:49;;;;;;;48.00;29.13;;;;;;;14.76;40.41;102344.44;5029285;28;20504;-64
2022/03/28 07:40:16;;;;;;;48.22;29.38;;;;;;;14.84;40.18;102334.34;5026862;28;20099;-64
2022/03/28 07:42:44;;;;;;;41.83;28.98;;;;;;;14.99;40.09;102344.13;5028959;28;20052;-64
2022/03/28 07:45:14;;;;;;;52.53;34.78;;;;;;;15.04;39.92;102332.50;5028388;28;20106;-64
2022/03/28 07:47:42;;;;;;;46.67;30.60;;;;;;;15.19;39.68;102337.00;5028825;28;20053;-64
2022/03/28 07:50:09;;;;;;;53.60;31.27;;;;;;;15.28;39.81;102328.59;5028512;28;20127;-64
2022/03/28 07:52:36;;;;;;;50.45;31.02;;;;;;;15.34;39.99;102332.75;5028644;28;20061;-64
2022/03/28 07:55:04;;;;;;;41.85;28.77;;;;;;;15.47;39.65;102323.22;5028379;28;20493;-64
2022/03/28 07:57:31;;;;;;;45.17;31.27;;;;;;;15.59;39.51;102327.03;5026150;28;20056;-64
2022/03/28 07:59:58;;;;;;;42.83;28.88;;;;;;;15.68;39.61;102326.53;5028805;28;20046;-64
2022/03/28 08:02:45;;;;;;;41.80;29.05;;;;;;;15.93;39.10;102332.34;5026604;28;20051;-67
2022/03/28 08:05:12;;;;;;;46.00;30.33;;;;;;;15.96;39.27;102321.56;5016924;28;20042;-64
2022/03/28 08:07:39;;;;;;;46.25;30.42;;;;;;;16.18;38.89;102317.78;5027962;28;20052;-64
2022/03/28 08:10:06;;;;;;;44.33;29.02;;;;;;;16.24;38.66;102322.72;5026494;28;20378;-64
2022/03/28 08:12:41;;;;;;;45.80;28.75;;;;;;;16.37;38.36;102314.97;5025960;28;20041;-64
2022/03/28 08:15:09;;;;;;;47.00;31.90;;;;;;;16.38;38.55;102314.88;5027386;28;20053;-64
2022/03/28 08:17:37;;;;;;;46.67;34.10;;;;;;;16.61;37.95;102316.22;5027819;28;20072;-64
2022/03/28 08:20:06;;;;;;;45.88;29.33;;;;;;;16.84;37.72;102311.38;5028022;28;20525;-64
2022/03/28 08:22:38;;;;;;;28.20;17.45;;;;;;;17.09;37.30;102305.53;5027136;28;20048;-62
2022/03/28 08:25:06;;;;;;;23.95;13.70;;;;;;;17.37;37.82;102306.53;5027384;28;20080;-63
2022/03/28 08:27:32;;;;;;;29.17;19.20;;;;;;;17.62;37.63;102307.66;5027678;28;20045;-63
2022/03/28 08:29:59;;;;;;;25.95;19.33;;;;;;;17.85;37.59;102300.06;5028608;28;20050;-62
2022/03/28 08:32:26;;;;;;;29.33;20.83;;;;;;;18.07;37.81;102303.13;5027608;28;20045;-63
2022/03/28 08:34:53;;;;;;;42.42;27.75;;;;;;;18.24;37.72;102301.19;5027969;28;20045;-62
2022/03/28 08:37:21;;;;;;;32.97;23.25;;;;;;;18.44;38.01;102303.38;5020930;28;20060;-62
2022/03/28 08:39:54;;;;;;;29.90;22.52;;;;;;;18.56;38.09;102303.53;5026404;28;20065;-62
2022/03/28 08:42:23;;;;;;;34.95;24.35;;;;;;;18.68;38.40;102289.44;5028183;28;20057;-63
2022/03/28 08:44:49;;;;;;;35.10;25.80;;;;;;;18.83;38.25;102300.00;5027340;28;20045;-64
2022/03/28 08:47:22;;;;;;;38.65;26.48;;;;;;;18.89;37.87;102294.28;5025602;28;20456;-63
2022/03/28 08:49:50;;;;;;;50.72;29.42;;;;;;;18.98;37.28;102300.81;5027656;28;20053;-63
2022/03/28 08:52:20;;;;;;;40.78;29.77;;;;;;;19.07;36.67;102293.06;5027876;28;20493;-63
2022/03/28 08:54:48;;;;;;;36.83;27.48;;;;;;;19.19;36.53;102294.03;5026955;28;20049;-64
2022/03/28 08:57:15;;;;;;;39.72;26.85;;;;;;;19.18;36.62;102294.97;5027791;28;20060;-65
2022/03/28 08:59:42;;;;;;;46.28;31.80;;;;;;;19.29;36.05;102290.72;5028202;28;20049;-63
2022/03/28 09:02:28;;;;;;;38.97;28.08;;;;;;;19.33;35.91;102282.44;5026826;28;20045;-62
2022/03/28 09:04:55;;;;;;;36.40;26.73;;;;;;;19.46;35.19;102289.56;5029084;28;20128;-65
2022/03/28 09:07:26;;;;;;;36.22;26.50;;;;;;;19.58;34.99;102286.06;5031189;28;20064;-63
2022/03/28 09:10:00;;;;;;;43.65;27.50;;;;;;;19.71;34.22;102288.69;5031765;28;20041;-62
2022/03/28 09:12:27;;;;;;;38.67;29.02;;;;;;;19.77;34.00;102282.94;5031780;28;20053;-63
2022/03/28 09:15:04;;;;;;;38.65;26.30;;;;;;;19.89;33.32;102281.22;5030673;28;20049;-63
2022/03/28 09:17:32;;;;;;;58.80;35.55;;;;;;;20.05;32.74;102273.84;5031284;28;20505;-62
2022/03/28 09:20:02;;;;;;;45.17;28.33;;;;;;;20.21;32.56;102267.38;5031505;28;20045;-63
2022/03/28 09:22:41;;;;;;;48.35;27.55;;;;;;;20.35;32.41;102261.91;5027654;28;20046;-62
2022/03/28 09:25:12;;;;;;;44.13;32.40;;;;;;;20.41;32.08;102259.72;5030257;28;20628;-63
2022/03/28 09:27:41;;;;;;;42.40;31.23;;;;;;;20.46;31.92;102261.06;5030725;28;20044;-63
2022/03/28 09:30:08;;;;;;;39.83;26.80;;;;;;;20.61;31.61;102247.53;5031145;28;20448;-64
2022/03/28 09:32:38;;;;;;;35.28;24.88;;;;;;;20.64;31.29;102253.50;5031156;28;20057;-64
2022/03/28 09:35:08;;;;;;;46.25;29.88;;;;;;;20.83;31.41;102244.16;5030022;28;20547;-64
2022/03/28 09:37:48;;;;;;;42.53;28.35;;;;;;;21.06;30.92;102245.03;5029645;28;20115;-66
2022/03/28 09:40:33;;;;;;;60.38;43.35;;;;;;;21.03;30.35;102246.13;5031392;28;20049;-67
2022/03/28 09:43:27;;;;;;;39.97;28.63;;;;;;;21.15;30.31;102236.31;5030370;28;20045;-67
2022/03/28 09:45:56;;;;;;;47.67;28.17;;;;;;;21.38;30.00;102238.97;5026925;28;20045;-67
2022/03/28 09:48:45;;;;;;;69.20;48.15;;;;;;;21.49;29.54;102235.47;5031002;28;20100;-67
2022/03/28 09:51:11;;;;;;;42.35;30.10;;;;;;;21.55;28.79;102235.03;5011265;28;20056;-67
2022/03/28 09:53:39;;;;;;;41.15;27.77;;;;;;;21.58;29.08;102237.44;5021941;28;20042;-67
2022/03/28 09:56:10;;;;;;;52.28;29.08;;;;;;;21.89;28.58;102226.09;5028702;28;20519;-67
2022/03/28 09:58:56;;;;;;;50.83;33.17;;;;;;;22.00;27.93;102226.06;5029609;28;20045;-67
2022/03/28 10:01:32;;;;;;;45.53;28.88;;;;;;;22.17;27.70;102224.69;5029875;28;20049;-67
2022/03/28 10:04:05;;;;;;;62.33;40.65;;;;;;;22.12;27.51;102219.72;5027380;28;20049;-67
2022/03/28 10:06:33;;;;;;;611.17;425.67;;;;;;;22.21;27.15;102207.41;5029168;28;20132;-67
2022/03/28 10:09:00;;;;;;;60.67;41.13;;;;;;;22.42;26.95;102201.28;5029926;28;20551;-65
2022/03/28 10:11:27;;;;;;;67.75;30.75;;;;;;;22.59;26.73;102198.03;5029727;28;20144;-66
2022/03/28 10:13:56;;;;;;;46.33;30.90;;;;;;;22.77;26.67;102198.28;5027349;28;20049;-67
2022/03/28 10:16:27;;;;;;;50.30;29.77;;;;;;;22.87;26.32;102194.78;5027694;28;20607;-68
2022/03/28 10:18:54;;;;;;;51.08;35.10;;;;;;;22.87;26.46;102192.97;5026942;28;20038;-67
2022/03/28 10:21:22;;;;;;;41.28;29.70;;;;;;;23.08;25.98;102192.09;5029910;28;20049;-67
2022/03/28 10:24:24;;;;;;;38.88;29.25;;;;;;;23.25;25.40;102185.28;5029580;28;20050;-67
2022/03/28 10:26:56;;;;;;;47.58;30.67;;;;;;;23.43;25.53;102182.81;5029672;28;20046;-66
2022/03/28 10:29:32;;;;;;;53.47;29.95;;;;;;;23.46;25.53;102171.81;5025896;28;20046;-67
2022/03/28 10:32:01;;;;;;;43.38;27.25;;;;;;;23.61;25.13;102173.13;5026309;28;20042;-67
2022/03/28 10:34:53;;;;;;;44.90;27.63;;;;;;;23.86;24.67;102170.03;5027460;28;20064;-67
2022/03/28 10:37:36;;;;;;;51.80;38.80;;;;;;;23.94;24.45;102159.50;5028248;28;20053;-67
2022/03/28 10:40:23;;;;;;;48.33;27.98;;;;;;;24.11;23.95;102153.44;5028558;28;20137;-68
2022/03/28 10:43:07;;;;;;;47.88;32.13;;;;;;;24.21;24.06;102150.75;5019201;28;20073;-67
2022/03/28 10:46:00;;;;;;;39.17;27.33;;;;;;;24.21;24.14;102144.53;5024172;28;20041;-67
2022/03/28 10:48:42;;;;;;;42.72;28.77;;;;;;;24.34;23.90;102141.56;5029351;28;20099;-67
2022/03/28 10:51:21;;;;;;;40.83;29.35;;;;;;;24.59;23.49;102126.69;5029548;28;20068;-67
2022/03/28 10:53:54;;;;;;;37.92;26.48;;;;;;;24.71;23.55;102127.38;5037476;28;20095;-65
2022/03/28 10:56:34;;;;;;;39.33;26.45;;;;;;;24.82;23.14;102116.44;5011170;28;20041;-66
2022/03/28 10:59:06;;;;;;;39.65;27.85;;;;;;;24.96;22.99;102117.81;5009684;28;20045;-67
2022/03/28 11:01:35;;;;;;;41.70;27.73;;;;;;;25.09;22.92;102112.13;5010997;28;20054;-67
2022/03/28 11:04:18;;;;;;;38.90;25.85;;;;;;;25.06;22.94;102112.38;5028268;28;20460;-67
2022/03/28 11:07:07;;;;;;;60.75;39.90;;;;;;;25.13;22.75;102101.88;5029793;28;20053;-67
2022/03/28 11:09:58;;;;;;;43.78;30.33;;;;;;;25.24;22.62;102097.16;5029113;28;20049;-67
2022/03/28 11:12:34;;;;;;;50.90;31.25;;;;;;;25.38;22.47;102095.84;5029383;28;20140;-66
2022/03/28 11:15:19;;;;;;;47.60;31.15;;;;;;;25.17;22.61;102095.25;5028962;28;20056;-64
2022/03/28 11:18:09;;;;;;;48.35;29.95;;;;;;;25.45;22.24;102087.19;5028967;28;20045;-65
2022/03/28 11:20:52;;;;;;;37.90;26.55;;;;;;;25.62;22.01;102080.09;5027820;28;20430;-66